Time;durP1;ratioP1;P1;durP2;ratioP2;P2;SDS_P1;SDS_P2;PMS_P1;PMS_P2;Temp;Humidity;BMP_temperature;BMP_pressure;BME280_temperature;BME280_humidity;BME280_pressure;Samples;Min_cycle;Max_cycle;Signal;HPM_P1;HPM_P2
2021/03/02 00:00:44;;;;;;;3.10;2.33;;;23.20;27.90;;;;;;5053915;28;20217;-47
2021/03/02 00:03:10;;;;;;;2.20;1.90;;;23.20;27.90;;;;;;5053822;28;20222;-44
2021/03/02 00:05:35;;;;;;;2.50;2.20;;;23.20;27.90;;;;;;5052694;28;20202;-43
2021/03/02 00:08:01;;;;;;;2.27;2.07;;;23.20;28.00;;;;;;5054437;28;20201;-43
2021/03/02 00:10:27;;;;;;;2.40;2.20;;;23.20;28.10;;;;;;5053183;28;20553;-43
2021/03/02 00:12:53;;;;;;;2.47;2.17;;;23.20;28.00;;;;;;5053878;28;20214;-46
2021/03/02 00:15:19;;;;;;;2.40;2.20;;;23.20;28.10;;;;;;5049141;28;20210;-44
2021/03/02 00:17:45;;;;;;;2.33;2.00;;;23.20;28.20;;;;;;5052400;28;20259;-43
2021/03/02 00:20:11;;;;;;;3.13;2.60;;;23.20;28.20;;;;;;5053635;28;20240;-43
2021/03/02 00:22:37;;;;;;;4.07;2.10;;;23.20;28.20;;;;;;5052151;28;20312;-44
2021/03/02 00:25:03;;;;;;;3.93;2.00;;;23.20;28.20;;;;;;5052401;28;20205;-43
2021/03/02 00:27:29;;;;;;;2.45;2.13;;;23.20;28.20;;;;;;5052434;28;20216;-44
2021/03/02 00:29:55;;;;;;;4.60;2.17;;;23.20;28.20;;;;;;5050765;28;20573;-44
2021/03/02 00:32:20;;;;;;;2.15;2.05;;;23.20;28.20;;;;;;5053708;28;20248;-43
2021/03/02 00:34:46;;;;;;;2.73;2.40;;;23.20;28.20;;;;;;5051242;28;20220;-43
2021/03/02 00:37:12;;;;;;;3.23;2.27;;;23.20;28.20;;;;;;5052223;28;20206;-43
2021/03/02 00:39:38;;;;;;;2.47;2.10;;;23.20;28.20;;;;;;5052411;28;20240;-44
2021/03/02 00:42:04;;;;;;;3.77;2.00;;;23.20;28.20;;;;;;5052665;28;20225;-43
2021/03/02 00:44:30;;;;;;;3.35;1.95;;;23.30;28.30;;;;;;5043019;28;20541;-43
2021/03/02 00:46:56;;;;;;;2.10;1.90;;;23.20;28.20;;;;;;5034915;28;20205;-44
2021/03/02 00:49:22;;;;;;;2.37;2.17;;;23.20;28.20;;;;;;5043276;28;20288;-43
2021/03/02 00:51:48;;;;;;;1.83;1.73;;;23.20;28.20;;;;;;5052070;28;20225;-43
2021/03/02 00:54:14;;;;;;;2.20;1.73;;;23.20;28.20;;;;;;5053410;28;20210;-43
2021/03/02 00:56:40;;;;;;;2.13;1.92;;;23.20;28.20;;;;;;5050142;28;20212;-44
2021/03/02 00:59:05;;;;;;;2.20;2.10;;;23.20;28.20;;;;;;5049556;28;20247;-47
2021/03/02 01:01:31;;;;;;;2.22;2.03;;;23.20;28.20;;;;;;5052751;28;20745;-43
2021/03/02 01:03:57;;;;;;;2.67;2.00;;;23.20;28.20;;;;;;5052120;28;20210;-43
2021/03/02 01:06:23;;;;;;;2.77;2.10;;;23.20;28.20;;;;;;5043598;28;20205;-45
2021/03/02 01:08:49;;;;;;;3.63;2.17;;;23.20;28.20;;;;;;5052208;28;20208;-45
2021/03/02 01:11:15;;;;;;;1.87;1.77;;;23.20;28.20;;;;;;5052124;28;20209;-45
2021/03/02 01:13:41;;;;;;;2.72;1.80;;;23.20;28.20;;;;;;5052508;28;20209;-43
2021/03/02 01:16:07;;;;;;;2.10;1.90;;;23.20;28.20;;;;;;5046504;28;20214;-46
2021/03/02 01:18:33;;;;;;;2.50;2.10;;;23.20;28.20;;;;;;5045513;28;20285;-45
2021/03/02 01:20:59;;;;;;;2.20;1.75;;;23.20;28.20;;;;;;5051320;28;20662;-44
2021/03/02 01:23:25;;;;;;;2.00;1.80;;;23.20;28.20;;;;;;5050586;28;20225;-47
2021/03/02 01:25:50;;;;;;;2.30;2.10;;;23.20;28.20;;;;;;5048376;28;20578;-45
2021/03/02 01:28:16;;;;;;;1.90;1.80;;;23.20;28.20;;;;;;5052451;28;20329;-43
2021/03/02 01:30:42;;;;;;;1.90;1.80;;;23.20;28.20;;;;;;5051231;28;20213;-48
2021/03/02 01:33:08;;;;;;;1.97;1.83;;;23.30;28.20;;;;;;5050855;28;20229;-43
2021/03/02 01:35:34;;;;;;;2.03;1.90;;;23.20;28.20;;;;;;5051341;28;20202;-43
2021/03/02 01:38:00;;;;;;;3.07;2.23;;;23.20;28.20;;;;;;5052862;28;20208;-44
2021/03/02 01:40:26;;;;;;;1.80;1.70;;;23.30;28.20;;;;;;5048363;28;20238;-45
2021/03/02 01:42:52;;;;;;;2.13;1.60;;;23.20;28.70;;;;;;5051118;28;20244;-48
2021/03/02 01:45:18;;;;;;;4.13;2.67;;;23.20;28.20;;;;;;5051358;28;20194;-46
2021/03/02 01:47:44;;;;;;;2.20;2.00;;;23.20;28.20;;;;;;5052662;28;20267;-48
2021/03/02 01:50:10;;;;;;;1.70;1.60;;;23.20;28.20;;;;;;5050221;28;20608;-45
2021/03/02 01:52:36;;;;;;;1.97;1.87;;;23.20;28.20;;;;;;5052072;28;20743;-45
2021/03/02 01:55:02;;;;;;;2.27;1.80;;;23.20;28.30;;;;;;5050312;28;20216;-43
2021/03/02 01:57:28;;;;;;;2.00;1.80;;;23.20;28.40;;;;;;5051167;28;20213;-52
2021/03/02 01:59:54;;;;;;;2.10;1.90;;;23.20;28.40;;;;;;5051117;28;20221;-54
2021/03/02 02:02:19;;;;;;;2.03;1.85;;;23.20;28.40;;;;;;5050753;28;20229;-57
2021/03/02 02:04:45;;;;;;;2.20;1.80;;;23.20;28.40;;;;;;5050237;28;20206;-47
2021/03/02 02:07:11;;;;;;;2.47;1.83;;;23.20;28.50;;;;;;5040264;28;20256;-50
2021/03/02 02:09:37;;;;;;;1.80;1.70;;;23.20;28.50;;;;;;5043935;28;20206;-54
2021/03/02 02:12:03;;;;;;;2.38;2.17;;;23.20;28.50;;;;;;5050304;28;20213;-53
2021/03/02 02:14:29;;;;;;;1.98;1.80;;;23.20;28.50;;;;;;5051604;28;20595;-54
2021/03/02 02:16:55;;;;;;;2.53;2.10;;;23.20;28.60;;;;;;5050933;28;20572;-49
2021/03/02 02:19:21;;;;;;;2.13;1.80;;;23.20;28.50;;;;;;5050233;28;20744;-55
2021/03/02 02:21:47;;;;;;;1.80;1.55;;;23.20;28.50;;;;;;5050604;28;20237;-54
2021/03/02 02:24:13;;;;;;;2.65;1.80;;;23.20;28.60;;;;;;5051121;28;20217;-57
2021/03/02 02:26:39;;;;;;;2.53;1.90;;;23.20;28.50;;;;;;5050726;28;20194;-54
2021/03/02 02:29:05;;;;;;;2.67;2.00;;;23.20;28.50;;;;;;5051021;28;20205;-57
2021/03/02 02:31:30;;;;;;;1.83;1.67;;;23.20;28.50;;;;;;5051156;28;20965;-57
2021/03/02 02:33:56;;;;;;;2.23;1.80;;;23.20;28.60;;;;;;5116588;22;20586;-54
2021/03/02 02:36:22;;;;;;;2.40;1.87;;;23.20;29.10;;;;;;5110181;28;20734;-47
2021/03/02 02:38:48;;;;;;;2.55;1.98;;;23.20;28.60;;;;;;5109250;28;20222;-50
2021/03/02 02:41:14;;;;;;;2.72;1.75;;;23.20;28.60;;;;;;5109725;28;20215;-51
2021/03/02 02:43:40;;;;;;;2.20;2.00;;;23.20;28.60;;;;;;5111157;28;20210;-46
2021/03/02 02:46:06;;;;;;;2.20;2.00;;;23.20;28.60;;;;;;5110061;28;20196;-55
2021/03/02 02:48:32;;;;;;;2.07;1.90;;;23.20;28.60;;;;;;5111840;28;20207;-56
2021/03/02 02:50:58;;;;;;;2.33;1.88;;;23.20;28.60;;;;;;5112489;28;20660;-57
2021/03/02 02:53:24;;;;;;;2.13;1.80;;;23.20;28.70;;;;;;5108414;28;20199;-50
2021/03/02 02:55:49;;;;;;;2.70;1.97;;;23.20;28.70;;;;;;5110348;28;20207;-47
2021/03/02 02:58:15;;;;;;;1.73;1.60;;;23.20;28.80;;;;;;5111475;28;20317;-50
2021/03/02 03:00:41;;;;;;;2.60;1.80;;;23.20;28.80;;;;;;5111615;28;20237;-47
2021/03/02 03:03:07;;;;;;;1.90;1.80;;;23.20;28.70;;;;;;5111583;28;20223;-49
2021/03/02 03:05:33;;;;;;;2.72;1.88;;;23.20;28.80;;;;;;5111350;28;20196;-48
2021/03/02 03:07:59;;;;;;;1.90;1.70;;;23.20;28.80;;;;;;5095286;28;20272;-46
2021/03/02 03:10:25;;;;;;;2.40;1.90;;;23.20;28.80;;;;;;5110833;28;20210;-51
2021/03/02 03:12:51;;;;;;;2.37;1.80;;;23.20;28.80;;;;;;5110839;28;20231;-45
2021/03/02 03:15:17;;;;;;;2.58;1.90;;;23.20;28.80;;;;;;5102557;28;20664;-48
2021/03/02 03:17:43;;;;;;;2.33;2.03;;;23.20;28.80;;;;;;5107198;28;20211;-48
2021/03/02 03:20:09;;;;;;;2.13;1.80;;;23.20;28.80;;;;;;5110429;28;20227;-44
2021/03/02 03:22:34;;;;;;;2.10;1.80;;;23.20;28.80;;;;;;5110496;28;20227;-42
2021/03/02 03:25:00;;;;;;;1.95;1.60;;;23.20;28.80;;;;;;5102360;28;20198;-42
2021/03/02 03:27:26;;;;;;;2.28;1.70;;;23.20;28.80;;;;;;5109785;28;20211;-50
2021/03/02 03:29:52;;;;;;;2.17;1.97;;;23.20;28.80;;;;;;5099354;28;20253;-42
2021/03/02 03:32:18;;;;;;;2.10;1.88;;;23.20;28.80;;;;;;5111144;28;20714;-47
2021/03/02 03:34:44;;;;;;;1.80;1.70;;;23.20;28.80;;;;;;5110094;28;20207;-43
2021/03/02 03:37:10;;;;;;;3.03;2.10;;;23.30;28.80;;;;;;5099219;28;20196;-42
2021/03/02 03:39:36;;;;;;;2.25;2.05;;;23.30;28.50;;;;;;5091014;28;20239;-46
2021/03/02 03:42:02;;;;;;;2.00;1.80;;;23.30;28.30;;;;;;5109394;28;20227;-42
2021/03/02 03:44:28;;;;;;;2.00;1.90;;;23.30;28.30;;;;;;5111032;28;20660;-43
2021/03/02 03:46:54;;;;;;;1.90;1.80;;;23.30;28.20;;;;;;5106859;28;20282;-47
2021/03/02 03:49:19;;;;;;;2.08;1.90;;;23.30;28.20;;;;;;5111710;28;20226;-42
2021/03/02 03:51:45;;;;;;;1.93;1.83;;;23.30;28.20;;;;;;5109961;28;20230;-42
2021/03/02 03:54:11;;;;;;;2.20;2.00;;;23.30;28.20;;;;;;5109126;28;20200;-43
2021/03/02 03:56:37;;;;;;;2.17;1.80;;;23.30;28.20;;;;;;5110579;28;20200;-44
2021/03/02 03:59:03;;;;;;;2.00;1.80;;;23.30;28.20;;;;;;5113506;28;20231;-43
2021/03/02 04:01:29;;;;;;;2.95;2.10;;;23.30;28.30;;;;;;5115066;28;20722;-46
2021/03/02 04:03:55;;;;;;;2.57;1.70;;;23.30;28.20;;;;;;5112604;28;20199;-43
2021/03/02 04:06:21;;;;;;;1.98;1.88;;;23.30;28.20;;;;;;5114576;28;20214;-46
2021/03/02 04:08:47;;;;;;;2.17;1.95;;;23.30;28.80;;;;;;5113208;28;20199;-45
2021/03/02 04:11:13;;;;;;;2.38;2.13;;;23.30;28.20;;;;;;5114899;28;20219;-53
2021/03/02 04:13:39;;;;;;;1.90;1.80;;;23.30;28.20;;;;;;5107321;28;20200;-50
2021/03/02 04:16:04;;;;;;;2.20;2.00;;;23.30;28.20;;;;;;5114728;28;20253;-46
2021/03/02 04:18:30;;;;;;;3.63;2.55;;;23.30;28.20;;;;;;5113613;28;20204;-43
2021/03/02 04:20:56;;;;;;;1.80;1.70;;;23.30;28.20;;;;;;5114031;28;20235;-51
2021/03/02 04:23:22;;;;;;;2.08;1.98;;;23.30;28.30;;;;;;5114218;28;20562;-48
2021/03/02 04:25:48;;;;;;;2.30;1.70;;;23.30;28.20;;;;;;5112134;28;20211;-45
2021/03/02 04:28:14;;;;;;;3.45;2.15;;;23.30;28.20;;;;;;5100416;28;20204;-53
2021/03/02 04:30:40;;;;;;;2.13;1.92;;;23.30;28.20;;;;;;5113942;28;20224;-53
2021/03/02 04:33:06;;;;;;;1.80;1.70;;;23.30;28.20;;;;;;5113882;28;20209;-55
2021/03/02 04:35:32;;;;;;;2.03;1.83;;;23.30;28.20;;;;;;5113545;28;20195;-53
2021/03/02 04:37:58;;;;;;;1.90;1.80;;;23.30;28.20;;;;;;5113286;28;20493;-46
2021/03/02 04:40:24;;;;;;;1.97;1.87;;;23.30;28.80;;;;;;5113473;28;20304;-55
2021/03/02 04:42:49;;;;;;;1.93;1.80;;;23.30;28.30;;;;;;5113391;28;20593;-55
2021/03/02 04:45:15;;;;;;;1.92;1.83;;;23.30;28.30;;;;;;5113597;28;20671;-50
2021/03/02 04:47:41;;;;;;;3.10;2.00;;;23.30;28.20;;;;;;5113612;28;20224;-42
2021/03/02 04:50:07;;;;;;;2.17;1.95;;;23.30;28.20;;;;;;5095610;28;20207;-48
2021/03/02 04:52:33;;;;;;;2.07;1.80;;;23.30;28.20;;;;;;5113458;28;20227;-56
2021/03/02 04:54:59;;;;;;;2.20;1.88;;;23.30;28.20;;;;;;5111437;28;20199;-57
2021/03/02 04:57:25;;;;;;;2.05;1.95;;;23.30;28.20;;;;;;5111710;27;20196;-53
2021/03/02 04:59:51;;;;;;;1.87;1.67;;;23.30;28.20;;;;;;5112404;28;20241;-55
2021/03/02 05:02:17;;;;;;;2.90;2.20;;;23.30;28.20;;;;;;5113122;28;20223;-50
2021/03/02 05:04:43;;;;;;;1.90;1.80;;;23.30;28.30;;;;;;5113292;28;20606;-43
2021/03/02 05:07:09;;;;;;;1.70;1.60;;;23.30;28.20;;;;;;5099929;28;20200;-43
2021/03/02 05:09:34;;;;;;;2.50;1.90;;;23.30;28.20;;;;;;5111149;28;20256;-45
2021/03/02 05:12:00;;;;;;;1.60;1.50;;;23.30;28.20;;;;;;5114051;28;20271;-45
2021/03/02 05:14:26;;;;;;;2.20;1.90;;;23.30;28.20;;;;;;5112176;28;20214;-45
2021/03/02 05:16:52;;;;;;;2.08;1.90;;;23.30;28.20;;;;;;5113714;28;20219;-44
2021/03/02 05:19:18;;;;;;;2.33;2.07;;;23.30;28.30;;;;;;5111118;28;20588;-55
2021/03/02 05:21:44;;;;;;;2.00;1.77;;;23.30;28.20;;;;;;5113092;28;20224;-47
2021/03/02 05:24:10;;;;;;;2.03;1.92;;;23.30;28.20;;;;;;5112770;28;20207;-48
2021/03/02 05:26:36;;;;;;;2.70;1.90;;;23.30;28.20;;;;;;5106969;28;20208;-46
2021/03/02 05:29:02;;;;;;;1.80;1.70;;;23.30;28.20;;;;;;5105913;28;20207;-43
2021/03/02 05:31:28;;;;;;;1.90;1.80;;;23.30;28.20;;;;;;5108314;28;20227;-48
2021/03/02 05:33:53;;;;;;;2.33;2.13;;;23.30;28.80;;;;;;5107746;28;20578;-45
2021/03/02 05:36:19;;;;;;;2.10;1.90;;;23.30;28.30;;;;;;5111800;28;20673;-53
2021/03/02 05:38:45;;;;;;;2.08;1.90;;;23.30;28.80;;;;;;5112285;28;20204;-43
2021/03/02 05:41:11;;;;;;;2.63;1.90;;;23.30;28.30;;;;;;5111178;28;20234;-49
2021/03/02 05:43:37;;;;;;;2.30;1.90;;;23.30;28.40;;;;;;5109650;28;20200;-48
2021/03/02 05:46:03;;;;;;;2.20;2.00;;;23.30;28.30;;;;;;5111530;28;20195;-43
2021/03/02 05:48:29;;;;;;;1.93;1.83;;;23.30;28.40;;;;;;5112343;28;20196;-44
2021/03/02 05:50:55;;;;;;;2.57;2.10;;;23.30;28.40;;;;;;5111035;28;20231;-44
2021/03/02 05:53:21;;;;;;;2.28;1.77;;;23.30;28.40;;;;;;5112167;28;20203;-43
2021/03/02 05:55:47;;;;;;;2.13;1.75;;;23.30;28.40;;;;;;5110653;28;20272;-43
2021/03/02 05:58:13;;;;;;;2.15;1.95;;;23.30;28.40;;;;;;5111292;28;20222;-43
2021/03/02 06:00:39;;;;;;;2.08;1.88;;;23.30;28.50;;;;;;5095004;28;20235;-45
2021/03/02 06:03:04;;;;;;;2.20;2.00;;;23.30;28.50;;;;;;5109211;28;20207;-43
2021/03/02 06:05:30;;;;;;;3.03;1.90;;;23.30;28.50;;;;;;5097269;28;20640;-43
2021/03/02 06:07:56;;;;;;;2.90;1.80;;;23.30;28.50;;;;;;5111718;28;20192;-44
2021/03/02 06:10:22;;;;;;;3.22;2.35;;;23.20;28.50;;;;;;5111931;28;20226;-43
2021/03/02 06:12:48;;;;;;;2.20;2.00;;;23.30;28.50;;;;;;5112057;28;20207;-45
2021/03/02 06:15:14;;;;;;;1.98;1.83;;;23.30;28.50;;;;;;5111458;28;20280;-44
2021/03/02 06:17:40;;;;;;;2.15;1.98;;;23.30;28.50;;;;;;5104812;28;20254;-43
2021/03/02 06:20:06;;;;;;;2.03;1.73;;;23.30;28.60;;;;;;5110655;28;20227;-43
2021/03/02 06:22:32;;;;;;;2.03;1.90;;;23.30;28.60;;;;;;5111614;28;20701;-43
2021/03/02 06:24:58;;;;;;;2.35;2.13;;;23.30;28.50;;;;;;5110510;28;20214;-47
2021/03/02 06:27:23;;;;;;;1.98;1.88;;;23.30;28.50;;;;;;5111833;28;20214;-45
2021/03/02 06:29:49;;;;;;;2.30;2.10;;;23.20;28.40;;;;;;5110101;28;20207;-42
2021/03/02 06:32:15;;;;;;;2.75;2.00;;;23.20;28.50;;;;;;5094503;28;20240;-50
2021/03/02 06:34:41;;;;;;;3.83;1.90;;;23.30;28.50;;;;;;5110777;28;20215;-50
2021/03/02 06:37:07;;;;;;;1.70;1.60;;;23.30;28.50;;;;;;5099635;28;20195;-52
2021/03/02 06:39:33;;;;;;;2.13;1.70;;;23.30;28.50;;;;;;5110848;28;20261;-53
2021/03/02 06:41:59;;;;;;;2.73;2.03;;;23.20;28.50;;;;;;5108023;28;20228;-47
2021/03/02 06:44:25;;;;;;;2.10;1.90;;;23.30;28.60;;;;;;5099458;28;20572;-48
2021/03/02 06:46:51;;;;;;;1.90;1.80;;;23.30;28.60;;;;;;5101144;28;20655;-51
2021/03/02 06:49:17;;;;;;;2.45;2.00;;;23.30;28.50;;;;;;5112134;28;20256;-46
2021/03/02 06:51:43;;;;;;;1.97;1.70;;;23.30;28.50;;;;;;5109884;28;20273;-47
2021/03/02 06:54:10;;;;;;;3.30;2.00;;;23.30;28.50;;;;;;5110387;28;20710;-53
2021/03/02 06:56:36;;;;;;;2.08;1.85;;;23.30;28.60;;;;;;5106179;28;20216;-52
2021/03/02 06:59:02;;;;;;;2.03;1.87;;;23.30;28.60;;;;;;5111022;28;20672;-47
2021/03/02 07:01:28;;;;;;;2.10;1.90;;;23.30;28.50;;;;;;5111972;28;20234;-45
2021/03/02 07:03:53;;;;;;;1.93;1.80;;;23.30;28.50;;;;;;5111510;28;20203;-51
2021/03/02 07:06:21;;;;;;;1.90;1.80;;;23.30;28.50;;;;;;5110881;28;20199;-48
2021/03/02 07:08:47;;;;;;;2.03;1.90;;;23.30;28.50;;;;;;5104844;28;20214;-43
2021/03/02 07:11:13;;;;;;;2.15;1.95;;;23.30;28.50;;;;;;5101631;28;20211;-43
2021/03/02 07:13:39;;;;;;;1.90;1.80;;;23.30;29.10;;;;;;5108860;28;20207;-51
2021/03/02 07:16:06;;;;;;;3.30;1.80;;;23.30;29.30;;;;;;5111451;28;20673;-49
2021/03/02 07:18:32;;;;;;;3.93;2.23;;;23.20;29.40;;;;;;5111757;28;20227;-49
2021/03/02 07:20:59;;;;;;;3.17;2.00;;;23.20;29.50;;;;;;5111258;28;20231;-50
2021/03/02 07:23:26;;;;;;;3.53;1.90;;;23.20;29.80;;;;;;5111486;28;20203;-49
2021/03/02 07:25:52;;;;;;;7.60;2.40;;;23.20;29.80;;;;;;5106837;28;20287;-46
2021/03/02 07:28:18;;;;;;;5.53;2.47;;;23.20;29.80;;;;;;5110227;28;20226;-44
2021/03/02 07:30:44;;;;;;;3.60;2.10;;;23.20;29.50;;;;;;5111707;28;20636;-47
2021/03/02 07:33:09;;;;;;;2.58;2.03;;;23.20;29.60;;;;;;5115309;28;20207;-43
2021/03/02 07:35:35;;;;;;;1.95;1.75;;;23.20;29.60;;;;;;5113805;28;20202;-47
2021/03/02 07:38:01;;;;;;;2.97;2.08;;;23.20;29.80;;;;;;5115986;28;20237;-50
2021/03/02 07:40:27;;;;;;;3.10;2.13;;;23.20;29.80;;;;;;5114374;28;20237;-45
2021/03/02 07:42:53;;;;;;;2.40;1.90;;;23.20;29.80;;;;;;5115944;28;20195;-43
2021/03/02 07:45:19;;;;;;;2.55;2.08;;;23.20;29.80;;;;;;5114151;28;20199;-47
2021/03/02 07:47:45;;;;;;;3.47;1.90;;;23.20;29.80;;;;;;5115288;28;20710;-50
2021/03/02 07:50:11;;;;;;;3.03;1.87;;;23.20;29.80;;;;;;5114227;28;20234;-47
2021/03/02 07:52:37;;;;;;;3.28;2.38;;;23.20;29.90;;;;;;5114640;28;20216;-43
2021/03/02 07:55:03;;;;;;;5.80;1.77;;;23.20;29.90;;;;;;5112277;28;20208;-43
2021/03/02 07:57:28;;;;;;;2.83;2.07;;;23.20;29.90;;;;;;5115508;28;20203;-46
2021/03/02 07:59:54;;;;;;;2.95;1.98;;;23.30;29.60;;;;;;5114108;28;20242;-44
2021/03/02 08:02:20;;;;;;;2.28;1.70;;;23.30;29.40;;;;;;5115593;28;20566;-49
2021/03/02 08:04:46;;;;;;;4.50;2.10;;;23.30;29.50;;;;;;5113007;28;20211;-47
2021/03/02 08:07:12;;;;;;;2.27;1.87;;;23.30;29.80;;;;;;5114819;28;20215;-43
2021/03/02 08:09:38;;;;;;;3.20;2.07;;;23.30;29.70;;;;;;5113461;28;20218;-48
2021/03/02 08:12:04;;;;;;;2.53;1.90;;;23.30;29.60;;;;;;5115006;28;20203;-51
2021/03/02 08:14:30;;;;;;;3.23;1.90;;;23.30;29.60;;;;;;5112335;28;20505;-52
2021/03/02 08:16:56;;;;;;;3.30;2.05;;;23.30;29.80;;;;;;5113839;28;20196;-46
2021/03/02 08:19:22;;;;;;;5.30;1.93;;;23.30;30.00;;;;;;5113296;28;20223;-50
2021/03/02 08:21:48;;;;;;;2.50;2.23;;;23.30;30.00;;;;;;5114762;28;20219;-57
2021/03/02 08:24:13;;;;;;;3.55;2.08;;;23.30;29.60;;;;;;5111768;28;20204;-55
2021/03/02 08:26:39;;;;;;;6.50;5.27;;;23.30;29.30;;;;;;5109611;28;20645;-56
2021/03/02 08:29:05;;;;;;;9.67;5.87;;;22.40;24.90;;;;;;5110428;28;20204;-53
2021/03/02 08:31:31;;;;;;;11.30;6.07;;;21.70;24.60;;;;;;5107951;28;20230;-56
2021/03/02 08:33:57;;;;;;;8.53;5.60;;;21.30;24.70;;;;;;5109944;22;20231;-50
2021/03/02 08:36:23;;;;;;;6.43;4.97;;;21.70;25.10;;;;;;5093535;28;20199;-55
2021/03/02 08:38:49;;;;;;;10.87;5.10;;;22.00;25.30;;;;;;5093390;28;20214;-54
2021/03/02 08:41:15;;;;;;;5.20;4.70;;;22.30;25.40;;;;;;5080829;28;20234;-51
2021/03/02 08:43:41;;;;;;;5.27;4.60;;;22.50;25.40;;;;;;5075056;28;20282;-57
2021/03/02 08:46:07;;;;;;;6.87;4.67;;;22.60;25.50;;;;;;5088929;28;20262;-59
2021/03/02 08:48:33;;;;;;;6.90;4.80;;;22.70;25.50;;;;;;5086346;28;20711;-56
2021/03/02 08:50:59;;;;;;;4.87;4.07;;;22.80;25.50;;;;;;5093195;28;20242;-56
2021/03/02 08:53:24;;;;;;;6.23;4.20;;;22.80;25.70;;;;;;5085389;28;20203;-53
2021/03/02 08:55:50;;;;;;;4.83;4.10;;;22.90;25.60;;;;;;5078783;28;20208;-53
2021/03/02 08:58:16;;;;;;;4.17;3.37;;;22.90;25.60;;;;;;5079334;28;20211;-58
2021/03/02 09:00:42;;;;;;;6.37;4.17;;;23.00;25.60;;;;;;5089084;28;20232;-54
2021/03/02 09:03:08;;;;;;;4.33;3.70;;;23.00;25.70;;;;;;5090211;28;20677;-49
2021/03/02 09:05:34;;;;;;;5.87;3.83;;;23.10;25.90;;;;;;5089191;28;20205;-55
2021/03/02 09:08:00;;;;;;;8.37;4.57;;;23.10;25.70;;;;;;5077314;28;20205;-56
2021/03/02 09:10:26;;;;;;;5.30;3.47;;;23.10;25.90;;;;;;5087204;28;21904;-55
2021/03/02 09:12:52;;;;;;;4.45;3.20;;;23.10;26.00;;;;;;5088810;28;20571;-47
2021/03/02 09:15:18;;;;;;;6.13;3.85;;;23.10;25.90;;;;;;5090450;28;20203;-53
2021/03/02 09:17:44;;;;;;;4.80;3.77;;;23.10;25.70;;;;;;5084740;28;20220;-56
2021/03/02 09:20:10;;;;;;;6.30;4.00;;;23.10;26.20;;;;;;5076741;28;20233;-53
2021/03/02 09:22:36;;;;;;;5.47;3.63;;;23.10;25.70;;;;;;5086126;28;20219;-55
2021/03/02 09:25:01;;;;;;;6.37;3.47;;;23.10;25.70;;;;;;5080425;28;20201;-51
2021/03/02 09:27:27;;;;;;;4.90;3.50;;;23.20;25.70;;;;;;5088433;28;20204;-54
2021/03/02 09:29:53;;;;;;;4.57;3.70;;;23.20;25.70;;;;;;5092171;28;20632;-58
2021/03/02 09:32:19;;;;;;;5.63;3.67;;;23.10;25.40;;;;;;5079141;28;20208;-50
2021/03/02 09:34:45;;;;;;;4.63;3.70;;;23.10;25.50;;;;;;5085400;28;20223;-52
2021/03/02 09:37:11;;;;;;;6.18;4.22;;;23.10;25.40;;;;;;5093018;28;20204;-57
2021/03/02 09:39:37;;;;;;;4.45;3.72;;;23.10;25.30;;;;;;5091878;28;20235;-57
2021/03/02 09:42:03;;;;;;;5.07;3.57;;;23.20;25.40;;;;;;5073337;28;20212;-57
2021/03/02 09:44:29;;;;;;;4.20;3.60;;;23.10;25.40;;;;;;5072067;28;20282;-50
2021/03/02 09:46:56;;;;;;;5.47;3.53;;;23.20;25.70;;;;;;5072152;28;20208;-59
2021/03/02 09:49:22;;;;;;;4.13;3.05;;;23.20;25.80;;;;;;5082235;28;20291;-58
2021/03/02 09:51:47;;;;;;;5.03;3.53;;;23.20;25.90;;;;;;5091979;28;20197;-59
2021/03/02 09:54:13;;;;;;;4.40;3.33;;;23.20;25.90;;;;;;5091681;28;20253;-57
2021/03/02 09:56:39;;;;;;;5.43;3.57;;;23.20;25.70;;;;;;5088411;28;20250;-49
2021/03/02 09:59:05;;;;;;;5.23;3.67;;;23.20;25.90;;;;;;5080583;28;20227;-56
2021/03/02 10:01:31;;;;;;;3.63;3.27;;;23.20;25.90;;;;;;5091849;28;20228;-51
2021/03/02 10:03:57;;;;;;;4.23;2.87;;;23.20;25.90;;;;;;5089099;28;20190;-52
2021/03/02 10:06:23;;;;;;;4.13;3.23;;;23.20;26.00;;;;;;5072152;28;20248;-56
2021/03/02 10:08:49;;;;;;;4.35;3.30;;;23.30;26.10;;;;;;5072653;28;20291;-52
2021/03/02 10:11:15;;;;;;;5.00;3.10;;;23.20;26.00;;;;;;5081400;28;20236;-54
2021/03/02 10:13:41;;;;;;;3.20;2.93;;;23.30;26.10;;;;;;5075062;28;20211;-48
2021/03/02 10:16:07;;;;;;;4.72;3.22;;;23.30;26.20;;;;;;5091432;28;20649;-52
2021/03/02 10:18:33;;;;;;;3.63;3.03;;;23.30;26.10;;;;;;5092614;28;20200;-54
2021/03/02 10:20:58;;;;;;;5.20;3.70;;;23.20;26.10;;;;;;5089263;28;20231;-55
2021/03/02 10:23:24;;;;;;;3.90;3.22;;;23.30;26.00;;;;;;5073594;28;20201;-52
2021/03/02 10:25:50;;;;;;;3.50;3.20;;;23.30;25.90;;;;;;5080715;28;20246;-56
2021/03/02 10:28:16;;;;;;;4.33;3.33;;;23.30;25.70;;;;;;5092081;28;20257;-55
2021/03/02 10:30:42;;;;;;;5.07;3.40;;;23.30;25.70;;;;;;5090849;28;20237;-53
2021/03/02 10:33:08;;;;;;;4.40;3.33;;;23.30;25.80;;;;;;5084465;28;20239;-54
2021/03/02 10:35:34;;;;;;;4.68;3.47;;;23.30;25.90;;;;;;5089303;28;20223;-52
2021/03/02 10:38:00;;;;;;;3.87;3.47;;;23.30;25.70;;;;;;5091724;28;20281;-53
2021/03/02 10:40:26;;;;;;;4.83;3.33;;;23.30;25.60;;;;;;5090830;28;20265;-55
2021/03/02 10:42:52;;;;;;;3.53;2.90;;;23.30;25.70;;;;;;5091845;28;20200;-56
2021/03/02 10:45:18;;;;;;;4.60;3.00;;;23.30;25.80;;;;;;5091121;28;20596;-53
2021/03/02 10:47:46;;;;;;;4.40;3.47;;;23.30;26.00;;;;;;5087605;28;20548;-53
2021/03/02 10:50:12;;;;;;;3.40;3.10;;;23.30;26.10;;;;;;5071667;28;20775;-52
2021/03/02 10:52:37;;;;;;;3.67;3.37;;;23.30;26.20;;;;;;5090829;28;20245;-51
2021/03/02 10:55:03;;;;;;;5.17;2.93;;;23.30;26.20;;;;;;5088225;28;20208;-56
2021/03/02 10:57:29;;;;;;;6.03;3.13;;;23.30;26.10;;;;;;5071497;28;20231;-47
2021/03/02 10:59:55;;;;;;;3.53;2.73;;;23.30;26.30;;;;;;5071602;28;20247;-58
2021/03/02 11:02:21;;;;;;;4.53;2.97;;;23.30;26.40;;;;;;5086426;28;20200;-55
2021/03/02 11:04:47;;;;;;;3.63;2.93;;;23.30;26.30;;;;;;5088828;28;20234;-55
2021/03/02 11:07:13;;;;;;;3.43;3.13;;;23.30;26.30;;;;;;5093853;28;20211;-53
2021/03/02 11:09:39;;;;;;;3.30;2.80;;;23.30;26.40;;;;;;5089907;28;20221;-59
2021/03/02 11:12:05;;;;;;;3.23;2.90;;;23.30;26.40;;;;;;5094849;28;20670;-55
2021/03/02 11:14:31;;;;;;;4.47;3.40;;;23.30;26.50;;;;;;5094662;28;20536;-51
2021/03/02 11:16:57;;;;;;;3.90;3.47;;;23.30;26.40;;;;;;5095193;28;20664;-51
2021/03/02 11:19:23;;;;;;;3.90;3.10;;;23.30;26.40;;;;;;5094480;28;20238;-52
2021/03/02 11:21:49;;;;;;;5.17;3.60;;;23.30;26.30;;;;;;5091983;28;20203;-48
2021/03/02 11:24:15;;;;;;;4.77;3.50;;;23.30;26.10;;;;;;5095626;28;20204;-52
2021/03/02 11:26:40;;;;;;;3.90;3.50;;;23.30;26.00;;;;;;5095253;28;20200;-54
2021/03/02 11:29:06;;;;;;;3.23;2.90;;;23.30;25.90;;;;;;5095733;28;20229;-49
2021/03/02 11:31:32;;;;;;;4.60;3.20;;;23.30;25.80;;;;;;5086634;28;20254;-44
2021/03/02 11:33:58;;;;;;;3.73;3.43;;;23.30;25.80;;;;;;5094695;28;20691;-49
2021/03/02 11:36:24;;;;;;;4.07;2.88;;;23.30;25.90;;;;;;5095478;28;20571;-51
2021/03/02 11:38:50;;;;;;;3.83;2.88;;;23.30;25.90;;;;;;5094391;28;20670;-47
2021/03/02 11:41:16;;;;;;;3.85;3.22;;;23.30;26.10;;;;;;5093247;28;20297;-46
2021/03/02 11:43:42;;;;;;;5.70;3.30;;;23.30;26.00;;;;;;5093561;28;20215;-54
2021/03/02 11:46:08;;;;;;;11.67;4.23;;;23.30;26.10;;;;;;5086964;28;20587;-46
2021/03/02 11:48:34;;;;;;;7.90;3.92;;;23.30;25.70;;;;;;5090529;28;20223;-50
2021/03/02 11:51:00;;;;;;;4.37;3.10;;;23.40;25.70;;;;;;5086754;28;20229;-49
2021/03/02 11:53:26;;;;;;;8.67;3.60;;;23.40;26.00;;;;;;5083777;28;20407;-51
2021/03/02 11:55:52;;;;;;;3.47;2.80;;;23.30;25.70;;;;;;5092007;28;20204;-49
2021/03/02 11:58:17;;;;;;;4.07;2.97;;;23.40;26.10;;;;;;5094694;28;20212;-46
2021/03/02 12:00:43;;;;;;;4.55;3.10;;;23.40;26.00;;;;;;5091983;28;20232;-42
2021/03/02 12:03:09;;;;;;;4.70;3.07;;;23.30;26.00;;;;;;5094193;28;20197;-42
2021/03/02 12:05:35;;;;;;;3.10;2.75;;;23.40;26.30;;;;;;5091922;28;20645;-43
2021/03/02 12:08:03;;;;;;;3.37;2.90;;;23.40;26.40;;;;;;5094981;28;20204;-50
2021/03/02 12:10:29;;;;;;;3.50;3.10;;;23.40;26.40;;;;;;5086024;28;20213;-44
2021/03/02 12:12:55;;;;;;;4.80;3.60;;;23.40;26.40;;;;;;5081360;28;20615;-44
2021/03/02 12:15:21;;;;;;;4.13;3.67;;;23.40;25.90;;;;;;5081715;28;20722;-53
2021/03/02 12:17:47;;;;;;;4.37;3.37;;;23.40;25.70;;;;;;5084819;28;20204;-54
2021/03/02 12:20:13;;;;;;;3.87;2.60;;;23.40;26.10;;;;;;5078086;28;20239;-54
2021/03/02 12:22:38;;;;;;;4.23;3.07;;;23.50;26.40;;;;;;5086136;28;20204;-55
2021/03/02 12:25:04;;;;;;;6.38;3.08;;;23.40;26.50;;;;;;5091696;28;20208;-54
2021/03/02 12:27:30;;;;;;;3.88;3.10;;;23.40;26.50;;;;;;5089919;28;20200;-54
2021/03/02 12:29:56;;;;;;;10.82;7.18;;;23.50;26.60;;;;;;5086217;28;20225;-50
2021/03/02 12:32:22;;;;;;;36.35;19.90;;;23.70;27.20;;;;;;5086616;28;20205;-55
2021/03/02 12:34:48;;;;;;;33.63;21.10;;;23.70;27.50;;;;;;5075871;28;20205;-53
2021/03/02 12:37:14;;;;;;;31.48;19.90;;;23.70;28.50;;;;;;5087165;28;20224;-51